| time (UTC) | temp F | wind direction | speed MPH | gust MPH | rain 1hr in | rain 24hr in | rain mn in | humidity % | barometer mb |
| 20260507222505 | 56 | 28 | 2.0 | 5.0 | 0.00 | 0.06 | 0.06 | 58 | 1007.4 |
| 20260507222005 | 55 | 26 | 3.0 | 9.0 | 0.00 | 0.06 | 0.06 | 59 | 1007.5 |
| 20260507221505 | 55 | 29 | 5.0 | 9.0 | 0.00 | 0.06 | 0.06 | 59 | 1007.5 |
| 20260507221005 | 55 | 17 | 5.0 | 10.0 | 0.00 | 0.06 | 0.06 | 61 | 1007.6 |
| 20260507220005 | 55 | 27 | 5.0 | 14.0 | 0.00 | 0.06 | 0.06 | 65 | 1007.6 |
| 20260507215505 | 55 | 21 | 7.0 | 21.0 | 0.00 | 0.06 | 0.06 | 63 | 1007.6 |
| 20260507214505 | 56 | 346 | 18.0 | 23.0 | 0.00 | 0.06 | 0.06 | 56 | 1007.8 |
| 20260507214005 | 57 | 358 | 7.0 | 18.0 | 0.00 | 0.06 | 0.06 | 57 | 1007.7 |
| 20260507213005 | 57 | 11 | 12.0 | 23.0 | 0.00 | 0.06 | 0.06 | 56 | 1007.9 |
| 20260507212505 | 59 | 12 | 14.0 | 23.0 | 0.00 | 0.06 | 0.06 | 51 | 1007.6 |
| 20260507212005 | 62 | 22 | 12.0 | 23.0 | 0.00 | 0.06 | 0.06 | 45 | 1007.6 |
| 20260507211506 | 63 | 25 | 7.0 | 13.0 | 0.00 | 0.06 | 0.06 | 43 | 1007.5 |
| 20260507211005 | 63 | 33 | 7.0 | 13.0 | 0.00 | 0.06 | 0.06 | 43 | 1007.6 |
| 20260507210006 | 62 | 27 | 6.0 | 13.0 | 0.00 | 0.06 | 0.06 | 43 | 1007.5 |
| 20260507205505 | 62 | 34 | 7.0 | 13.0 | 0.00 | 0.06 | 0.06 | 44 | 1007.5 |
| 20260507204505 | 63 | 35 | 1.0 | 12.0 | 0.00 | 0.06 | 0.06 | 44 | 1007.4 |
| 20260507204005 | 62 | 24 | 5.0 | 13.0 | 0.00 | 0.06 | 0.06 | 45 | 1007.4 |
| 20260507203505 | 62 | 346 | 4.0 | 13.0 | 0.00 | 0.06 | 0.06 | 45 | 1007.4 |
| 20260507203005 | 62 | 17 | 4.0 | 12.0 | 0.00 | 0.06 | 0.06 | 43 | 1007.4 |
| 20260507202505 | 62 | 10 | 6.0 | 10.0 | 0.00 | 0.06 | 0.06 | 46 | 1007.4 |
| 20260507201005 | 61 | 116 | 1.0 | 6.0 | 0.00 | 0.06 | 0.06 | 48 | 1007.6 |
| 20260507200005 | 59 | 73 | 0.0 | 0.0 | 0.00 | 0.06 | 0.06 | 51 | 1007.7 |
| 20260507195505 | 59 | 73 | 0.0 | 3.0 | 0.00 | 0.06 | 0.06 | 51 | 1007.6 |
| 20260507195005 | 59 | 73 | 1.0 | 5.0 | 0.00 | 0.06 | 0.06 | 52 | 1007.7 |
| 20260507194504 | 58 | 72 | 2.0 | 5.0 | 0.00 | 0.06 | 0.06 | 55 | 1007.8 |
| 20260507194005 | 58 | 53 | 2.0 | 5.0 | 0.00 | 0.06 | 0.06 | 54 | 1007.8 |
| 20260507193505 | 58 | 52 | 2.0 | 5.0 | 0.00 | 0.06 | 0.06 | 56 | 1007.9 |
| 20260507193005 | 58 | 21 | 1.0 | 6.0 | 0.00 | 0.06 | 0.06 | 58 | 1008.0 |
| 20260507192005 | 58 | 75 | 2.0 | 7.0 | 0.00 | 0.06 | 0.06 | 57 | 1008.0 |
| 20260507191505 | 58 | 99 | 1.0 | 9.0 | 0.00 | 0.06 | 0.06 | 59 | 1008.1 |
| 20260507191005 | 58 | 101 | 5.0 | 9.0 | 0.00 | 0.06 | 0.06 | 60 | 1008.1 |
| 20260507185505 | 57 | 82 | 4.0 | 8.0 | 0.00 | 0.06 | 0.06 | 61 | 1008.2 |
| 20260507185006 | 57 | 62 | 5.0 | 8.0 | 0.00 | 0.06 | 0.06 | 59 | 1008.2 |
| 20260507184504 | 57 | 88 | 3.0 | 8.0 | 0.00 | 0.06 | 0.06 | 60 | 1008.2 |
| 20260507184005 | 56 | 63 | 3.0 | 8.0 | 0.00 | 0.06 | 0.06 | 60 | 1008.3 |
| 20260507183505 | 56 | 85 | 4.0 | 9.0 | 0.00 | 0.06 | 0.06 | 60 | 1008.3 |
| 20260507183004 | 56 | 36 | 3.0 | 9.0 | 0.00 | 0.06 | 0.06 | 61 | 1008.3 |
| 20260507182005 | 56 | 43 | 3.0 | 9.0 | 0.00 | 0.06 | 0.06 | 61 | 1008.2 |
| 20260507181505 | 56 | 62 | 5.0 | 12.0 | 0.00 | 0.06 | 0.06 | 58 | 1008.2 |
| 20260507181005 | 56 | 31 | 5.0 | 12.0 | 0.00 | 0.06 | 0.06 | 60 | 1008.1 |
| 20260507175505 | 57 | 36 | 9.0 | 15.0 | 0.00 | 0.06 | 0.06 | 61 | 1008.1 |
| 20260507175005 | 57 | 35 | 7.0 | 15.0 | 0.00 | 0.06 | 0.06 | 62 | 1008.0 |
| 20260507174005 | 56 | 52 | 6.0 | 12.0 | 0.00 | 0.06 | 0.06 | 64 | 1007.9 |
| 20260507173505 | 56 | 57 | 5.0 | 12.0 | 0.00 | 0.06 | 0.06 | 63 | 1008.0 |
| 20260507173005 | 57 | 62 | 7.0 | 12.0 | 0.00 | 0.06 | 0.06 | 63 | 1007.9 |
| 20260507172505 | 57 | 74 | 4.0 | 8.0 | 0.00 | 0.06 | 0.06 | 62 | 1007.9 |
| 20260507172005 | 57 | 35 | 1.0 | 12.0 | 0.00 | 0.06 | 0.06 | 61 | 1007.9 |
| 20260507171504 | 57 | 342 | 4.0 | 12.0 | 0.00 | 0.06 | 0.06 | 61 | 1007.9 |
| 20260507171005 | 57 | 306 | 6.0 | 12.0 | 0.00 | 0.06 | 0.06 | 59 | 1007.8 |
| 20260507170005 | 56 | 282 | 9.0 | 13.0 | 0.00 | 0.06 | 0.06 | 62 | 1007.8 |
| 20260507165505 | 56 | 262 | 9.0 | 12.0 | 0.00 | 0.06 | 0.06 | 63 | 1007.8 |
| 20260507165005 | 56 | 265 | 9.0 | 12.0 | 0.00 | 0.06 | 0.06 | 65 | 1007.9 |
| 20260507164504 | 55 | 267 | 9.0 | 12.0 | 0.00 | 0.06 | 0.06 | 66 | 1007.9 |
| 20260507163505 | 55 | 267 | 10.0 | 15.0 | 0.00 | 0.06 | 0.06 | 67 | 1008.1 |
| 20260507163005 | 55 | 267 | 11.0 | 15.0 | 0.00 | 0.06 | 0.06 | 67 | 1008.0 |
| 20260507162005 | 54 | 248 | 8.0 | 12.0 | 0.00 | 0.06 | 0.06 | 67 | 1008.0 |
| 20260507161505 | 54 | 261 | 9.0 | 12.0 | 0.00 | 0.06 | 0.06 | 66 | 1007.9 |
| 20260507161005 | 54 | 252 | 7.0 | 12.0 | 0.00 | 0.06 | 0.06 | 68 | 1007.9 |
| 20260507160005 | 54 | 272 | 9.0 | 12.0 | 0.00 | 0.06 | 0.06 | 66 | 1007.9 |
| 20260507155505 | 54 | 270 | 9.0 | 12.0 | 0.00 | 0.06 | 0.06 | 65 | 1007.9 |
| 20260507155005 | 54 | 269 | 9.0 | 12.0 | 0.00 | 0.06 | 0.06 | 66 | 1007.9 |
| 20260507154505 | 54 | 284 | 7.0 | 12.0 | 0.00 | 0.06 | 0.06 | 66 | 1007.9 |
| 20260507154006 | 54 | 270 | 9.0 | 13.0 | 0.00 | 0.06 | 0.06 | 65 | 1007.9 |
| 20260507153505 | 54 | 247 | 10.0 | 16.0 | 0.00 | 0.06 | 0.06 | 65 | 1007.9 |
| 20260507153005 | 54 | 258 | 10.0 | 16.0 | 0.00 | 0.06 | 0.06 | 66 | 1007.8 |
| 20260507152505 | 53 | 262 | 10.0 | 20.0 | 0.00 | 0.06 | 0.06 | 67 | 1007.8 |
| 20260507152005 | 53 | 268 | 10.0 | 20.0 | 0.00 | 0.06 | 0.06 | 67 | 1007.8 |
| 20260507151505 | 53 | 256 | 13.0 | 20.0 | 0.00 | 0.06 | 0.06 | 66 | 1007.9 |
| 20260507151005 | 53 | 278 | 14.0 | 20.0 | 0.00 | 0.06 | 0.06 | 66 | 1007.9 |
| 20260507150006 | 53 | 262 | 13.0 | 20.0 | 0.00 | 0.06 | 0.06 | 66 | 1007.7 |
| 20260507145505 | 53 | 266 | 14.0 | 20.0 | 0.00 | 0.06 | 0.06 | 68 | 1007.6 |
| 20260507145005 | 53 | 263 | 15.0 | 20.0 | 0.00 | 0.06 | 0.06 | 67 | 1007.7 |
| 20260507144505 | 53 | 262 | 15.0 | 20.0 | 0.00 | 0.06 | 0.06 | 67 | 1007.6 |
| 20260507144005 | 53 | 258 | 14.0 | 20.0 | 0.00 | 0.06 | 0.06 | 67 | 1007.6 |
| 20260507143504 | 52 | 252 | 14.0 | 21.0 | 0.00 | 0.06 | 0.06 | 69 | 1007.7 |
| 20260507143004 | 52 | 247 | 14.0 | 21.0 | 0.00 | 0.06 | 0.06 | 70 | 1007.7 |
| 20260507142505 | 51 | 237 | 13.0 | 20.0 | 0.00 | 0.06 | 0.06 | 71 | 1007.6 |
| 20260507141505 | 51 | 253 | 13.0 | 23.0 | 0.00 | 0.06 | 0.06 | 72 | 1007.6 |
| 20260507135511 | 51 | 272 | 16.0 | 22.0 | 0.00 | 0.06 | 0.06 | 72 | 1007.8 |
| 20260507135004 | 51 | 256 | 16.0 | 26.0 | 0.00 | 0.06 | 0.06 | 72 | 1007.8 |
| 20260507134505 | 51 | 265 | 18.0 | 28.0 | 0.00 | 0.06 | 0.06 | 72 | 1007.8 |
| 20260507134005 | 50 | 266 | 21.0 | 28.0 | 0.00 | 0.06 | 0.06 | 73 | 1007.9 |
| 20260507133504 | 50 | 255 | 21.0 | 26.0 | 0.00 | 0.06 | 0.06 | 73 | 1008.0 |
| 20260507132505 | 49 | 247 | 19.0 | 24.0 | 0.00 | 0.06 | 0.06 | 77 | 1007.9 |
| 20260507132005 | 49 | 251 | 15.0 | 22.0 | 0.00 | 0.06 | 0.06 | 80 | 1007.8 |
| 20260507131505 | 48 | 256 | 16.0 | 20.0 | 0.00 | 0.06 | 0.06 | 81 | 1007.7 |
| 20260507131005 | 47 | 238 | 12.0 | 16.0 | 0.00 | 0.06 | 0.06 | 83 | 1007.8 |
| 20260507130005 | 48 | 245 | 10.0 | 14.0 | 0.00 | 0.06 | 0.06 | 80 | 1008.2 |
| 20260507125504 | 49 | 239 | 10.0 | 18.0 | 0.00 | 0.06 | 0.06 | 76 | 1008.3 |
| 20260507125005 | 49 | 243 | 13.0 | 21.0 | 0.00 | 0.06 | 0.06 | 75 | 1008.1 |
| 20260507124505 | 49 | 272 | 17.0 | 21.0 | 0.00 | 0.06 | 0.06 | 74 | 1008.0 |
| 20260507124005 | 50 | 268 | 17.0 | 20.0 | 0.00 | 0.06 | 0.06 | 74 | 1007.9 |
| 20260507123505 | 49 | 285 | 16.0 | 24.0 | 0.00 | 0.06 | 0.06 | 76 | 1007.9 |
| 20260507122505 | 49 | 258 | 17.0 | 26.0 | 0.00 | 0.06 | 0.06 | 80 | 1008.2 |
| 20260507122005 | 49 | 282 | 18.0 | 26.0 | 0.00 | 0.06 | 0.06 | 78 | 1008.5 |
| 20260507121504 | 49 | 289 | 20.0 | 26.0 | 0.00 | 0.06 | 0.06 | 79 | 1008.5 |
| 20260507121005 | 49 | 285 | 17.0 | 26.0 | 0.00 | 0.06 | 0.06 | 78 | 1008.5 |
| 20260507120005 | 49 | 250 | 13.0 | 20.0 | 0.00 | 0.06 | 0.06 | 78 | 1007.8 |
| 20260507115505 | 49 | 249 | 12.0 | 17.0 | 0.00 | 0.06 | 0.06 | 79 | 1007.7 |
| 20260507115005 | 48 | 239 | 9.0 | 14.0 | 0.00 | 0.06 | 0.06 | 80 | 1007.4 |
| 20260507114505 | 48 | 241 | 9.0 | 15.0 | 0.00 | 0.06 | 0.06 | 81 | 1007.5 |
| 20260507114005 | 49 | 254 | 12.0 | 15.0 | 0.00 | 0.06 | 0.06 | 80 | 1007.6 |
| 20260507113005 | 49 | 249 | 10.0 | 17.0 | 0.00 | 0.06 | 0.06 | 79 | 1007.5 |
| 20260507112505 | 49 | 266 | 13.0 | 17.0 | 0.00 | 0.06 | 0.06 | 79 | 1007.7 |
| 20260507112005 | 49 | 249 | 13.0 | 16.0 | 0.00 | 0.06 | 0.06 | 79 | 1007.7 |
| 20260507111506 | 49 | 245 | 10.0 | 15.0 | 0.00 | 0.06 | 0.06 | 79 | 1007.6 |
| 20260507111004 | 49 | 262 | 10.0 | 15.0 | 0.00 | 0.06 | 0.06 | 80 | 1007.5 |
| 20260507105504 | 48 | 242 | 8.0 | 12.0 | 0.00 | 0.06 | 0.06 | 82 | 1008.1 |
| 20260507105005 | 48 | 248 | 8.0 | 12.0 | 0.00 | 0.06 | 0.06 | 84 | 1008.2 |
| 20260507104505 | 48 | 262 | 8.0 | 12.0 | 0.00 | 0.06 | 0.06 | 84 | 1007.9 |
| 20260507104005 | 48 | 268 | 5.0 | 12.0 | 0.00 | 0.06 | 0.06 | 84 | 1007.8 |
| 20260507103505 | 48 | 244 | 7.0 | 12.0 | 0.00 | 0.06 | 0.06 | 83 | 1007.8 |
| 20260507103004 | 49 | 243 | 8.0 | 12.0 | 0.00 | 0.06 | 0.06 | 82 | 1007.8 |
| 20260507102505 | 49 | 241 | 6.0 | 16.0 | 0.00 | 0.06 | 0.06 | 82 | 1007.7 |
| 20260507102006 | 49 | 242 | 10.0 | 16.0 | 0.00 | 0.06 | 0.06 | 81 | 1007.8 |
| 20260507101506 | 50 | 269 | 10.0 | 16.0 | 0.00 | 0.06 | 0.06 | 77 | 1008.0 |
| 20260507101004 | 50 | 257 | 13.0 | 17.0 | 0.00 | 0.06 | 0.06 | 76 | 1007.8 |
| 20260507100005 | 50 | 245 | 13.0 | 20.0 | 0.00 | 0.06 | 0.06 | 74 | 1007.9 |
| 20260507095504 | 51 | 254 | 13.0 | 20.0 | 0.00 | 0.06 | 0.06 | 74 | 1007.9 |
| 20260507095005 | 51 | 237 | 11.0 | 16.0 | 0.00 | 0.06 | 0.06 | 74 | 1007.7 |
| 20260507094505 | 51 | 242 | 12.0 | 16.0 | 0.00 | 0.06 | 0.06 | 73 | 1007.9 |
| 20260507094005 | 51 | 254 | 12.0 | 15.0 | 0.00 | 0.06 | 0.06 | 74 | 1008.0 |
| 20260507093505 | 50 | 236 | 10.0 | 15.0 | 0.00 | 0.06 | 0.06 | 75 | 1008.1 |
| 20260507093004 | 50 | 240 | 10.0 | 15.0 | 0.00 | 0.06 | 0.06 | 76 | 1008.1 |
| 20260507092505 | 50 | 245 | 12.0 | 16.0 | 0.00 | 0.06 | 0.06 | 76 | 1008.1 |
| 20260507091505 | 50 | 260 | 11.0 | 20.0 | 0.00 | 0.06 | 0.06 | 77 | 1008.3 |
| 20260507091004 | 50 | 249 | 13.0 | 20.0 | 0.00 | 0.06 | 0.06 | 78 | 1008.3 |
| 20260507090005 | 49 | 247 | 10.0 | 15.0 | 0.00 | 0.06 | 0.06 | 81 | 1008.5 |
| 20260507085505 | 49 | 267 | 11.0 | 15.0 | 0.00 | 0.06 | 0.06 | 82 | 1008.4 |
| 20260507085005 | 49 | 238 | 13.0 | 16.0 | 0.00 | 0.06 | 0.06 | 82 | 1008.0 |
| 20260507084504 | 49 | 245 | 10.0 | 16.0 | 0.00 | 0.06 | 0.06 | 83 | 1008.4 |
| 20260507084005 | 49 | 260 | 12.0 | 17.0 | 0.00 | 0.06 | 0.06 | 83 | 1008.6 |
| 20260507083505 | 49 | 243 | 12.0 | 17.0 | 0.00 | 0.06 | 0.06 | 83 | 1008.7 |
| 20260507083005 | 49 | 251 | 13.0 | 17.0 | 0.00 | 0.06 | 0.06 | 83 | 1009.0 |
| 20260507082505 | 49 | 241 | 7.0 | 12.0 | 0.00 | 0.06 | 0.06 | 84 | 1009.2 |
| 20260507082005 | 48 | 239 | 9.0 | 12.0 | 0.01 | 0.06 | 0.06 | 85 | 1009.1 |
| 20260507081505 | 48 | 245 | 9.0 | 12.0 | 0.01 | 0.06 | 0.06 | 85 | 1009.2 |
| 20260507081004 | 48 | 240 | 9.0 | 14.0 | 0.01 | 0.06 | 0.06 | 85 | 1009.3 |
| 20260507080004 | 49 | 226 | 6.0 | 10.0 | 0.02 | 0.06 | 0.06 | 84 | 1009.4 |
| 20260507075504 | 49 | 243 | 6.0 | 9.0 | 0.02 | 0.06 | 0.06 | 84 | 1009.6 |
| 20260507075004 | 49 | 200 | 5.0 | 9.0 | 0.03 | 0.06 | 0.06 | 84 | 1009.7 |
| 20260507074504 | 49 | 213 | 2.0 | 7.0 | 0.04 | 0.06 | 0.06 | 84 | 1009.7 |
| 20260507074004 | 49 | 205 | 3.0 | 7.0 | 0.06 | 0.06 | 0.06 | 84 | 1009.8 |
| 20260507073005 | 49 | 245 | 5.0 | 10.0 | 0.06 | 0.06 | 0.06 | 83 | 1010.0 |
| 20260507072505 | 49 | 272 | 5.0 | 12.0 | 0.06 | 0.06 | 0.06 | 82 | 1010.1 |
| 20260507072006 | 49 | 260 | 6.0 | 12.0 | 0.05 | 0.05 | 0.05 | 82 | 1010.1 |
| 20260507071504 | 49 | 282 | 4.0 | 7.0 | 0.05 | 0.05 | 0.05 | 82 | 1010.4 |
| 20260507071004 | 49 | 277 | 3.0 | 6.0 | 0.05 | 0.05 | 0.05 | 82 | 1010.3 |
| 20260507070009 | 50 | 260 | 2.0 | 7.0 | 0.04 | 0.04 | 0.04 | 79 | 1010.1 |
| 20260507065505 | 50 | 278 | 3.0 | 7.0 | 0.04 | 0.04 | 0.04 | 77 | 1010.1 |
| 20260507065005 | 51 | 333 | 3.0 | 8.0 | 0.03 | 0.03 | 0.03 | 76 | 1010.2 |
| 20260507064004 | 51 | 330 | 6.0 | 9.0 | 0.00 | 0.00 | 0.00 | 70 | 1009.8 |
| 20260507063505 | 52 | 340 | 6.0 | 10.0 | 0.00 | 0.00 | 0.00 | 70 | 1009.6 |
| 20260507062505 | 52 | 9 | 4.0 | 12.0 | 0.00 | 0.00 | 0.00 | 69 | 1009.3 |
| 20260507062004 | 53 | 346 | 7.0 | 17.0 | 0.00 | 0.00 | 0.00 | 67 | 1009.2 |
| 20260507061005 | 54 | 340 | 13.0 | 20.0 | 0.00 | 0.00 | 0.00 | 62 | 1009.6 |
| 20260507060004 | 55 | 328 | 14.0 | 30.0 | 0.00 | 0.00 | 0.00 | 59 | 1009.5 |
| 20260507055004 | 57 | 320 | 17.0 | 24.0 | 0.00 | 0.00 | 0.00 | 47 | 1009.2 |
| 20260507054505 | 58 | 309 | 10.0 | 16.0 | 0.00 | 0.00 | 0.00 | 41 | 1008.9 |
| 20260507053005 | 58 | 278 | 9.0 | 13.0 | 0.00 | 0.00 | 0.00 | 40 | 1008.4 |
| 20260507052004 | 58 | 258 | 9.0 | 12.0 | 0.00 | 0.00 | 0.00 | 39 | 1008.3 |
| 20260507051504 | 58 | 255 | 9.0 | 12.0 | 0.00 | 0.00 | 0.00 | 39 | 1008.3 |
| 20260507051004 | 58 | 248 | 9.0 | 12.0 | 0.00 | 0.00 | 0.00 | 39 | 1008.4 |
| 20260507050005 | 58 | 247 | 9.0 | 12.0 | 0.00 | 0.00 | 0.00 | 39 | 1008.5 |
| 20260507045005 | 58 | 245 | 10.0 | 12.0 | 0.00 | 0.00 | 0.00 | 39 | 1008.7 |
| 20260507044504 | 58 | 245 | 9.0 | 12.0 | 0.00 | 0.00 | 0.00 | 39 | 1008.8 |
| 20260507044004 | 59 | 253 | 9.0 | 12.0 | 0.00 | 0.00 | 0.00 | 38 | 1008.9 |
| 20260507043504 | 59 | 277 | 9.0 | 12.0 | 0.00 | 0.00 | 0.00 | 38 | 1009.0 |
| 20260507043004 | 60 | 271 | 9.0 | 12.0 | 0.00 | 0.00 | 0.00 | 37 | 1009.1 |
| 20260507042504 | 60 | 284 | 8.0 | 14.0 | 0.00 | 0.00 | 0.00 | 36 | 1009.1 |
| 20260507042005 | 60 | 284 | 10.0 | 14.0 | 0.00 | 0.00 | 0.00 | 35 | 1009.0 |
| 20260507041504 | 60 | 299 | 10.0 | 14.0 | 0.00 | 0.00 | 0.00 | 35 | 1009.1 |
| 20260507041004 | 60 | 288 | 9.0 | 13.0 | 0.00 | 0.00 | 0.00 | 35 | 1009.1 |
| 20260507040005 | 61 | 278 | 9.0 | 14.0 | 0.00 | 0.00 | 0.00 | 34 | 1009.2 |
| 20260507035504 | 61 | 297 | 10.0 | 16.0 | 0.00 | 0.00 | 0.00 | 34 | 1009.3 |
| 20260507035005 | 61 | 302 | 9.0 | 16.0 | 0.00 | 0.00 | 0.00 | 33 | 1009.3 |
| 20260507034505 | 61 | 297 | 10.0 | 18.0 | 0.00 | 0.00 | 0.00 | 33 | 1009.2 |
| 20260507034005 | 61 | 287 | 13.0 | 18.0 | 0.00 | 0.00 | 0.00 | 34 | 1009.2 |
| 20260507033504 | 61 | 295 | 12.0 | 26.0 | 0.00 | 0.00 | 0.00 | 34 | 1009.4 |
| 20260507033004 | 61 | 279 | 14.0 | 26.0 | 0.00 | 0.00 | 0.00 | 35 | 1009.4 |
| 20260507032004 | 61 | 297 | 11.0 | 25.0 | 0.00 | 0.00 | 0.00 | 35 | 1009.2 |
| 20260507031504 | 61 | 305 | 16.0 | 25.0 | 0.00 | 0.00 | 0.00 | 35 | 1009.5 |
| 20260507031004 | 60 | 294 | 12.0 | 15.0 | 0.00 | 0.00 | 0.00 | 35 | 1009.3 |
| 20260507030004 | 60 | 275 | 9.0 | 12.0 | 0.00 | 0.00 | 0.00 | 35 | 1009.0 |
| 20260507025504 | 60 | 262 | 9.0 | 13.0 | 0.00 | 0.00 | 0.00 | 35 | 1009.0 |
| 20260507025004 | 61 | 268 | 10.0 | 14.0 | 0.00 | 0.00 | 0.00 | 34 | 1009.0 |
| 20260507024504 | 61 | 272 | 10.0 | 15.0 | 0.00 | 0.00 | 0.00 | 33 | 1009.0 |
| 20260507023504 | 61 | 259 | 10.0 | 14.0 | 0.00 | 0.00 | 0.00 | 33 | 1009.0 |
| 20260507023004 | 62 | 282 | 9.0 | 14.0 | 0.00 | 0.00 | 0.00 | 33 | 1009.0 |
| 20260507022504 | 62 | 284 | 9.0 | 14.0 | 0.00 | 0.00 | 0.00 | 32 | 1009.0 |
| 20260507021504 | 62 | 285 | 9.0 | 16.0 | 0.00 | 0.00 | 0.00 | 32 | 1009.0 |
| 20260507021004 | 62 | 281 | 12.0 | 16.0 | 0.00 | 0.00 | 0.00 | 31 | 1009.0 |
| 20260507020004 | 63 | 281 | 10.0 | 17.0 | 0.00 | 0.00 | 0.00 | 31 | 1009.1 |
| 20260507015005 | 64 | 284 | 10.0 | 18.0 | 0.00 | 0.00 | 0.00 | 30 | 1009.2 |
| 20260507014005 | 64 | 283 | 13.0 | 21.0 | 0.00 | 0.00 | 0.00 | 30 | 1009.3 |
| 20260507013504 | 64 | 290 | 13.0 | 25.0 | 0.00 | 0.00 | 0.00 | 29 | 1009.3 |
| 20260507013004 | 65 | 297 | 17.0 | 25.0 | 0.00 | 0.00 | 0.00 | 28 | 1009.4 |
| 20260507012504 | 65 | 295 | 15.0 | 20.0 | 0.00 | 0.00 | 0.00 | 28 | 1009.4 |
| 20260507012004 | 65 | 289 | 13.0 | 21.0 | 0.00 | 0.00 | 0.00 | 29 | 1009.5 |
| 20260507011504 | 65 | 302 | 14.0 | 26.0 | 0.00 | 0.00 | 0.00 | 28 | 1009.6 |
| 20260507011004 | 65 | 288 | 18.0 | 26.0 | 0.00 | 0.00 | 0.00 | 28 | 1009.7 |
| 20260507010004 | 65 | 292 | 13.0 | 24.0 | 0.00 | 0.00 | 0.00 | 28 | 1009.7 |
| 20260507005504 | 65 | 300 | 17.0 | 24.0 | 0.00 | 0.00 | 0.00 | 28 | 1009.7 |
| 20260507005004 | 65 | 287 | 12.0 | 24.0 | 0.00 | 0.00 | 0.00 | 29 | 1009.7 |
| 20260507004504 | 65 | 298 | 16.0 | 25.0 | 0.00 | 0.00 | 0.00 | 28 | 1009.9 |
| 20260507004004 | 65 | 283 | 16.0 | 26.0 | 0.00 | 0.00 | 0.00 | 28 | 1009.8 |
| 20260507003504 | 65 | 295 | 14.0 | 26.0 | 0.00 | 0.00 | 0.00 | 29 | 1009.9 |
| 20260507003004 | 64 | 298 | 13.0 | 25.0 | 0.00 | 0.00 | 0.00 | 29 | 1010.0 |
| 20260507002503 | 64 | 298 | 17.0 | 29.0 | 0.00 | 0.00 | 0.00 | 29 | 1010.0 |
| 20260507001504 | 64 | 292 | 13.0 | 25.0 | 0.00 | 0.00 | 0.00 | 28 | 1010.2 |
| 20260507001004 | 65 | 312 | 13.0 | 28.0 | 0.00 | 0.00 | 0.00 | 28 | 1010.2 |
| 20260507000004 | 65 | 304 | 13.0 | 22.0 | 0.00 | 0.00 | 0.00 | 28 | 1010.4 |
| 20260506235004 | 65 | 305 | 20.0 | 30.0 | 0.00 | 0.00 | 0.00 | 27 | 1010.6 |
| 20260506234504 | 65 | 307 | 15.0 | 25.0 | 0.00 | 0.00 | 0.00 | 27 | 1010.6 |
| 20260506234006 | 65 | 303 | 17.0 | 26.0 | 0.00 | 0.00 | 0.00 | 27 | 1010.6 |
| 20260506233507 | 65 | 310 | 18.0 | 26.0 | 0.00 | 0.00 | 0.00 | 27 | 1010.8 |
| 20260506233006 | 65 | 301 | 16.0 | 28.0 | 0.00 | 0.00 | 0.00 | 27 | 1010.8 |
| 20260506232505 | 65 | 315 | 18.0 | 28.0 | 0.00 | 0.00 | 0.00 | 27 | 1010.9 |
| 20260506232006 | 65 | 309 | 17.0 | 29.0 | 0.00 | 0.00 | 0.00 | 27 | 1011.0 |
| 20260506231506 | 64 | 303 | 20.0 | 29.0 | 0.00 | 0.00 | 0.00 | 27 | 1011.1 |
| 20260506231006 | 64 | 278 | 20.0 | 32.0 | 0.00 | 0.00 | 0.00 | 27 | 1011.1 |
| 20260506230006 | 64 | 302 | 17.0 | 31.0 | 0.00 | 0.00 | 0.00 | 26 | 1011.2 |
| 20260506225506 | 64 | 285 | 20.0 | 28.0 | 0.00 | 0.00 | 0.00 | 25 | 1011.3 |
| 20260506225007 | 64 | 293 | 20.0 | 26.0 | 0.00 | 0.00 | 0.00 | 25 | 1011.4 |
| 20260506224506 | 64 | 284 | 17.0 | 26.0 | 0.00 | 0.00 | 0.00 | 25 | 1011.4 |
| 20260506224006 | 64 | 301 | 18.0 | 28.0 | 0.00 | 0.00 | 0.00 | 25 | 1011.6 |